METAR Data
IDs: Format: Raw Decoded Include TAF

Data at: 2111 UTC 18 Apr 2021

METAR for:KBEA (Beeville Muni, TX, US)
Text:KBEA 182055Z AUTO 35004KT 10SM OVC100 19/09 A3006 RMK AO2 T01930086
Temperature: 19.3°C ( 67°F)
Dewpoint: 8.6°C ( 47°F) [RH = 50%]
Pressure (altimeter):30.06 inches Hg (1018.0 mb)
Winds:from the N (350 degrees) at 5 MPH (4 knots; 2.1 m/s)
Visibility:10 or more sm (16+ km)
Ceiling:10000 feet AGL
Clouds: overcast cloud deck at 10000 feet AGL
QC Flag:automated observation with no human augmentation